< < Back
Terminal Aerodrome Forecast


Current Version              Previous Versions:   1  2  3  4  5  6  7  8  9  

Terminal Aerodrome Forecast

502
FTUS42 KJAX 262344
TAFGNV
TAF
KGNV 262344Z 2700/2724 09007KT P6SM SKC
     FM270200 08002KT P6SM SKC
     FM271400 09008KT P6SM SCT040=



Latest METAR

261
SAUS70 KWBC 280400 RRL
MTRGNV
METAR KGNV 280353Z AUTO 07006KT 10SM CLR 21/19 A3004 RMK AO2 SLP169
T02110189


USA.gov is the U.S. government's official web portal to all federal, state and local government web resources and services.